Aérodrome :
LOGIN :

S'inscrire | Disclaimer

   EN    FR    IT 

 










Légende :    VFR   VFR Marginal   IFR   IFR Intensif   IFR Très Intensif
Visi : 
Plafond : 
>= 8 km
>= 3000ft
5 à 8 km
1000 à 3000 ft
1500m à 5 km
500 à 1000 ft
800 à 1500m
200 à 500 ft
< 800m
< 200 ft
Symboles :   Orages  Brouillard  Fortes neiges  Fortes précipitations  Vent > 20 kt
SIGMETs :   Divers  Orages  Givrage  Turbulence  Onde Orograph.  Cendres Volcan.






- Altitude de l'aérodrome : 56 ft
- Code IATA : BZR


LFMU - Beziers / Vias

DERNIER METAR :
  • 161030Z AUTO 21005KT 130V270 CAVOK 13/M03 Q1018 NOSIG

METARs EXPIRÉS :
  • 161000Z AUTO 24006KT 170V300 CAVOK 13/M02 Q1018 NOSIG
  • 160930Z AUTO 27008KT 230V300 CAVOK 12/M00 Q1019 NOSIG
  • 160900Z AUTO 27009KT CAVOK 12/M01 Q1019 NOSIG
  • 160830Z AUTO 27010KT 230V290 CAVOK 12/M02 Q1019 NOSIG
  • 160800Z AUTO 31006KT 280V340 CAVOK 11/M01 Q1019 NOSIG

TAF TAF LFMU
Valide du 16 à 09h jusqu'au 17 à 09h UTC


160800Z 1609/1709 31005KT CAVOK
TEMPO 1611/1618 18010KT
TEMPO 1705/1709 SHRA SCT040TCU
ATIS : +33 4 67 90 88 88



MET'MAP, la Météo Aéronautique d'un coup d'oeil ! - Copyright ORBIFLY Décembre 2007 - Disclaimer

ORBIFLY MET'MAP TEAM :

Programmation & Développement : Alexandra Zaïnal
Sur une idée originale de : Baudouin d'Aumeries
Assistance à la programmation : Marc-Olivier Méhu
Soutien technique & logistique : Manuel Goepfert

Contact : metmap@orbifly.com




SOURCES & CREDITS :

   NOAA